Buckner, Kentucky
Current Conditions -  °F | °C
As of 9:53 PM on Saturday 25 Oct 2014 (Local Time) from KLOU Reporting Station
Clear Clear  
Wind Chill: 18°   Ceiling: Unl
Heat Index: 18°   Visibility: 10mi
Dew Point: 13°   Wind: 6mph
Humidity: 75%   Direction: 220°SW
Pressure: 29.97"   Gusts: NA
Location:  38.38°N, 85.44°W
Report Text: KLOU 260153Z 22005KT 10SM CLR 18/13 A2997 RMK AO2 SLP148 T01780133
Loading
Personal Weather Stations






























Interactive Weather Map
Tropical Storm Tracking
New forecast layout! Learn more

10-Day Weather Forecast

Advertisements
Track Severe Weather on mobile